createdAt,value
2023-04-14T00:00:59.077Z,11.73
2023-04-14T00:03:26.839Z,9.80
2023-04-14T00:05:54.770Z,10.30
2023-04-14T00:08:22.813Z,10.93
2023-04-14T00:10:52.107Z,10.80
2023-04-14T00:13:19.680Z,11.10
2023-04-14T00:15:47.173Z,11.00
2023-04-14T00:18:15.660Z,10.33
2023-04-14T00:20:44.158Z,10.43
2023-04-14T00:23:12.286Z,10.60
2023-04-14T00:25:40.178Z,11.43
2023-04-14T00:28:09.476Z,11.00
2023-04-14T00:30:37.586Z,10.37
2023-04-14T00:33:05.405Z,10.40
2023-04-14T00:35:33.333Z,10.60
2023-04-14T00:38:01.502Z,11.00
2023-04-14T00:40:31.468Z,11.10
2023-04-14T00:43:00.093Z,10.73
2023-04-14T00:45:30.213Z,11.30
2023-04-14T00:47:59.467Z,12.30
2023-04-14T00:50:27.461Z,12.83
2023-04-14T00:52:55.548Z,11.70
2023-04-14T00:55:23.398Z,10.20
2023-04-14T00:57:51.611Z,11.07
2023-04-14T01:00:19.660Z,12.33
2023-04-14T01:02:49.495Z,12.43
2023-04-14T01:05:20.157Z,12.60
2023-04-14T01:07:49.541Z,13.70
2023-04-14T01:10:17.635Z,11.53
2023-04-14T01:13:09.194Z,11.43
2023-04-14T01:15:40.402Z,11.53
2023-04-14T01:18:16.369Z,11.37
2023-04-14T01:20:46.011Z,11.97
2023-04-14T01:23:18.596Z,13.13
2023-04-14T01:26:13.727Z,12.67
2023-04-14T01:28:50.696Z,12.07
2023-04-14T01:31:26.011Z,11.17
2023-04-14T01:33:58.445Z,10.67
2023-04-14T01:36:34.264Z,10.87
2023-04-14T01:39:04.790Z,10.50
2023-04-14T01:41:34.264Z,11.30
2023-04-14T01:44:03.240Z,11.10
2023-04-14T01:46:35.658Z,11.63
2023-04-14T01:49:06.551Z,10.30
2023-04-14T01:51:35.927Z,11.27
2023-04-14T01:54:05.291Z,11.10
2023-04-14T01:56:34.153Z,11.67
2023-04-14T01:59:03.216Z,9.47
2023-04-14T02:01:31.120Z,10.40
2023-04-14T02:04:01.092Z,10.47
2023-04-14T02:06:29.686Z,9.23
2023-04-14T02:09:00.974Z,10.27
2023-04-14T02:11:29.003Z,9.60
2023-04-14T02:13:59.366Z,10.90
2023-04-14T02:16:27.566Z,11.33
2023-04-14T02:18:55.178Z,10.53
2023-04-14T02:21:25.697Z,10.13
2023-04-14T02:23:53.537Z,9.60
2023-04-14T02:26:23.442Z,10.00
2023-04-14T02:29:02.659Z,9.70
2023-04-14T02:31:31.479Z,9.90
2023-04-14T02:33:59.949Z,8.60
2023-04-14T02:36:33.231Z,9.87
2023-04-14T02:39:03.692Z,9.47
2023-04-14T02:41:34.135Z,11.63
2023-04-14T02:44:06.267Z,10.20
2023-04-14T02:46:38.512Z,9.20
2023-04-14T02:49:07.222Z,11.03
2023-04-14T02:51:38.911Z,9.27
2023-04-14T02:54:06.958Z,9.43
2023-04-14T02:56:41.465Z,8.93
2023-04-14T02:59:09.157Z,8.70
2023-04-14T03:01:44.793Z,8.90
2023-04-14T03:04:13.993Z,8.30
2023-04-14T03:06:47.065Z,8.90
2023-04-14T03:09:15.064Z,8.73
2023-04-14T03:11:43.052Z,8.40
2023-04-14T03:14:12.025Z,9.13
2023-04-14T03:16:40.863Z,8.97
2023-04-14T03:19:12.546Z,9.43
2023-04-14T03:21:43.464Z,8.77
2023-04-14T03:24:17.997Z,9.40
2023-04-14T03:26:46.837Z,9.87
2023-04-14T03:29:15.422Z,9.40
2023-04-14T03:31:44.975Z,9.90
2023-04-14T03:34:16.042Z,11.20
2023-04-14T03:36:49.325Z,10.10
2023-04-14T03:39:19.348Z,10.40
2023-04-14T03:41:51.580Z,9.30
2023-04-14T03:44:21.035Z,9.50
2023-04-14T03:46:51.203Z,9.90
2023-04-14T03:49:20.807Z,9.60
2023-04-14T03:51:51.926Z,9.70
2023-04-14T03:54:22.664Z,9.37
2023-04-14T03:56:51.790Z,9.60
2023-04-14T03:59:21.036Z,8.37
2023-04-14T04:01:49.141Z,9.37
2023-04-14T04:04:16.930Z,9.07
2023-04-14T04:06:46.078Z,9.37
2023-04-14T04:09:17.995Z,9.10
2023-04-14T04:11:48.325Z,8.83
2023-04-14T04:14:18.203Z,9.10
2023-04-14T04:16:50.007Z,9.40
2023-04-14T04:19:20.593Z,9.23
2023-04-14T04:21:50.250Z,10.17
2023-04-14T04:24:20.012Z,10.47
2023-04-14T04:26:49.799Z,10.17
2023-04-14T04:29:17.777Z,10.70
2023-04-14T04:31:45.603Z,9.90
2023-04-14T04:34:14.373Z,9.40
2023-04-14T04:36:42.483Z,9.90
2023-04-14T04:39:10.629Z,8.97
2023-04-14T04:41:41.529Z,10.10
2023-04-14T04:44:10.785Z,10.30
2023-04-14T04:46:50.322Z,10.40
2023-04-14T04:49:18.145Z,10.00
2023-04-14T04:51:46.912Z,9.60
2023-04-14T04:54:15.932Z,9.37
2023-04-14T04:56:43.421Z,9.60
2023-04-14T04:59:12.264Z,8.53
2023-04-14T05:01:40.105Z,9.40
2023-04-14T05:04:07.788Z,8.10
2023-04-14T05:06:37.027Z,10.10
2023-04-14T05:09:05.212Z,10.53
2023-04-14T05:11:33.189Z,11.20
2023-04-14T05:14:00.778Z,10.70
2023-04-14T05:16:29.982Z,12.37
2023-04-14T05:18:57.510Z,10.73
2023-04-14T05:21:25.167Z,11.33
2023-04-14T05:23:53.395Z,11.80
2023-04-14T05:26:44.795Z,11.17
2023-04-14T05:29:08.827Z,10.53
2023-04-14T05:31:37.870Z,10.93
2023-04-14T05:34:05.544Z,11.73
2023-04-14T05:36:33.037Z,11.13
2023-04-14T05:39:00.596Z,12.13
2023-04-14T05:41:28.121Z,11.63
2023-04-14T05:43:55.676Z,12.60
2023-04-14T05:46:23.259Z,12.83
2023-04-14T05:48:52.311Z,10.73
2023-04-14T05:51:19.815Z,10.70
2023-04-14T05:53:47.305Z,10.53
2023-04-14T05:56:14.846Z,10.87
2023-04-14T05:58:42.360Z,10.63
2023-04-14T06:01:10.142Z,10.77
2023-04-14T06:03:40.196Z,11.30
2023-04-14T06:06:09.975Z,10.33
2023-04-14T06:08:37.477Z,9.37
2023-04-14T06:11:05.339Z,10.60
2023-04-14T06:13:35.528Z,9.30
2023-04-14T06:16:04.153Z,9.90
2023-04-14T06:18:31.672Z,10.30
2023-04-14T06:20:59.414Z,9.13
2023-04-14T06:23:28.399Z,9.70
2023-04-14T06:25:57.109Z,9.40
2023-04-14T06:28:26.063Z,8.50
2023-04-14T06:30:53.566Z,9.47
2023-04-14T06:33:21.060Z,8.43
2023-04-14T06:35:48.586Z,8.80
2023-04-14T06:38:16.309Z,8.43
2023-04-14T06:40:45.096Z,9.83
2023-04-14T06:43:14.103Z,9.53
2023-04-14T06:45:41.639Z,9.67
2023-04-14T06:48:09.313Z,8.93
2023-04-14T06:50:36.828Z,8.37
2023-04-14T06:53:05.674Z,8.13
2023-04-14T06:55:33.169Z,7.07
2023-04-14T06:58:02.239Z,8.67
2023-04-14T07:00:29.806Z,7.83
2023-04-14T07:02:57.659Z,7.70
2023-04-14T07:05:25.419Z,7.33
2023-04-14T07:07:52.996Z,8.20
2023-04-14T07:10:20.913Z,8.47
2023-04-14T07:12:48.696Z,7.60
2023-04-14T07:15:17.834Z,8.43
2023-04-14T07:17:45.559Z,7.23
2023-04-14T07:20:13.270Z,7.07
2023-04-14T07:22:42.119Z,8.40
2023-04-14T07:25:10.406Z,7.23
2023-04-14T07:27:38.117Z,6.87
2023-04-14T07:30:07.214Z,7.20
2023-04-14T07:32:38.220Z,6.27
2023-04-14T07:35:08.588Z,6.77
2023-04-14T07:37:36.358Z,7.40
2023-04-14T07:40:03.991Z,5.83
2023-04-14T07:42:31.998Z,6.40
2023-04-14T07:44:59.759Z,5.97
2023-04-14T07:47:28.915Z,5.03
2023-04-14T07:49:58.325Z,4.70
2023-04-14T07:52:26.842Z,4.23
2023-04-14T07:54:54.390Z,4.40
2023-04-14T07:57:21.973Z,3.30
2023-04-14T07:59:49.545Z,3.40
2023-04-14T08:02:17.669Z,3.90
2023-04-14T08:04:45.352Z,3.60
2023-04-14T08:07:14.458Z,3.13
2023-04-14T08:09:43.312Z,3.60
2023-04-14T08:12:10.910Z,2.77
2023-04-14T08:14:38.720Z,2.97
2023-04-14T08:17:06.889Z,3.17
2023-04-14T08:19:35.082Z,3.40
2023-04-14T08:22:03.872Z,2.60
2023-04-14T08:24:34.891Z,3.10
2023-04-14T08:27:03.960Z,3.23
2023-04-14T08:29:31.961Z,2.80
2023-04-14T08:32:00.255Z,2.20
2023-04-14T08:34:28.971Z,2.20
2023-04-14T08:37:00.447Z,4.83
2023-04-14T08:39:30.271Z,2.10
2023-04-14T08:41:59.854Z,1.97
2023-04-14T08:44:27.926Z,2.10
2023-04-14T08:46:56.571Z,1.83
2023-04-14T08:49:30.140Z,2.00
2023-04-14T08:52:01.810Z,2.23
2023-04-14T08:54:30.344Z,1.90
2023-04-14T08:57:00.833Z,1.70
2023-04-14T08:59:31.978Z,2.20
2023-04-14T09:02:00.975Z,1.80
2023-04-14T09:04:31.112Z,1.70
2023-04-14T09:07:03.452Z,1.97
2023-04-14T09:09:36.454Z,2.47
2023-04-14T09:12:06.780Z,2.57
2023-04-14T09:14:37.585Z,1.93
2023-04-14T09:17:06.922Z,2.10
2023-04-14T09:19:35.989Z,1.90
2023-04-14T09:22:04.514Z,1.60
2023-04-14T09:24:39.218Z,1.70
2023-04-14T09:27:08.961Z,1.33
2023-04-14T09:29:38.898Z,2.27
2023-04-14T09:32:12.684Z,1.97
2023-04-14T09:34:56.546Z,1.67
2023-04-14T09:37:26.636Z,1.50
2023-04-14T09:39:56.248Z,1.77
2023-04-14T09:42:39.729Z,2.33
2023-04-14T09:45:12.362Z,2.60
2023-04-14T09:47:47.102Z,2.07
2023-04-14T09:50:19.228Z,2.13
2023-04-14T09:52:48.809Z,2.03
2023-04-14T09:55:21.259Z,2.20
2023-04-14T09:57:52.598Z,2.03
2023-04-14T10:00:33.088Z,1.20
2023-04-14T10:03:01.901Z,2.33
2023-04-14T10:05:34.771Z,1.80
2023-04-14T10:08:03.937Z,1.37
2023-04-14T10:10:33.306Z,1.40
2023-04-14T10:13:04.408Z,2.37
2023-04-14T10:15:32.976Z,1.87
2023-04-14T10:18:02.895Z,2.33
2023-04-14T10:20:32.670Z,1.90
2023-04-14T10:23:05.253Z,1.83
2023-04-14T10:25:34.329Z,2.17
2023-04-14T10:28:04.688Z,1.30
2023-04-14T10:30:34.241Z,1.90
2023-04-14T10:33:05.107Z,2.13
2023-04-14T10:35:39.057Z,1.77
2023-04-14T10:38:07.038Z,2.27
2023-04-14T10:40:46.861Z,1.93
2023-04-14T10:43:16.015Z,1.77
2023-04-14T10:45:55.116Z,1.40
2023-04-14T10:48:25.324Z,2.17
2023-04-14T10:50:56.445Z,2.60
2023-04-14T10:53:26.498Z,2.13
2023-04-14T10:55:55.595Z,1.90
2023-04-14T10:58:29.180Z,1.73
2023-04-14T11:00:57.881Z,1.80
2023-04-14T11:03:28.769Z,1.30
2023-04-14T11:05:56.734Z,1.87
2023-04-14T11:08:26.569Z,1.30
2023-04-14T11:11:01.961Z,1.43
2023-04-14T11:13:31.668Z,1.53
2023-04-14T11:16:03.303Z,1.80
2023-04-14T11:18:37.137Z,1.30
2023-04-14T11:21:06.459Z,1.80
2023-04-14T11:23:35.164Z,1.70
2023-04-14T11:26:03.421Z,1.97
2023-04-14T11:28:33.487Z,1.83
2023-04-14T11:31:03.525Z,1.57
2023-04-14T11:33:32.307Z,1.70
2023-04-14T11:36:00.143Z,1.60
2023-04-14T11:38:27.786Z,1.77
2023-04-14T11:40:56.612Z,1.57
2023-04-14T11:43:24.713Z,1.50
2023-04-14T11:45:53.841Z,2.13
2023-04-14T11:48:21.698Z,1.43
2023-04-14T11:50:49.518Z,1.80
2023-04-14T11:53:18.209Z,2.57
2023-04-14T11:55:48.258Z,2.77
2023-04-14T11:58:17.135Z,2.00
2023-04-14T12:00:44.701Z,1.70
2023-04-14T12:03:13.891Z,2.47
2023-04-14T12:05:41.864Z,2.37
2023-04-14T12:08:12.031Z,2.60
2023-04-14T12:10:41.057Z,3.30
2023-04-14T12:13:09.995Z,2.80
2023-04-14T12:15:38.893Z,3.63
2023-04-14T12:18:09.145Z,2.80
2023-04-14T12:20:43.966Z,3.93
2023-04-14T12:23:11.662Z,3.83
2023-04-14T12:25:40.395Z,3.47
2023-04-14T12:28:08.538Z,3.57
2023-04-14T12:30:37.322Z,3.93
2023-04-14T12:33:11.269Z,3.27
2023-04-14T12:35:40.355Z,2.70
2023-04-14T12:38:13.630Z,3.20
2023-04-14T12:40:42.547Z,2.73
2023-04-14T12:43:10.281Z,2.50
2023-04-14T12:45:42.039Z,2.77
2023-04-14T12:48:09.771Z,2.87
2023-04-14T12:50:37.708Z,3.03
2023-04-14T12:53:28.479Z,3.10
2023-04-14T12:56:10.230Z,3.53
2023-04-14T12:58:38.860Z,2.73
2023-04-14T13:01:07.980Z,2.80
2023-04-14T13:03:55.727Z,3.40
2023-04-14T13:06:24.866Z,2.40
2023-04-14T13:08:55.944Z,3.10
2023-04-14T13:11:24.298Z,3.00
2023-04-14T13:13:52.301Z,2.80
2023-04-14T13:16:20.760Z,3.30
2023-04-14T13:18:49.435Z,3.30
2023-04-14T13:21:17.676Z,3.40
2023-04-14T13:23:45.577Z,3.33
2023-04-14T13:26:14.712Z,3.80
2023-04-14T13:28:43.140Z,3.00
2023-04-14T13:31:11.629Z,2.57
2023-04-14T13:33:39.304Z,3.10
2023-04-14T13:36:07.641Z,4.30
2023-04-14T13:38:36.034Z,2.73
2023-04-14T13:41:03.994Z,3.20
2023-04-14T13:43:33.550Z,2.77
2023-04-14T13:46:02.224Z,3.13
2023-04-14T13:48:32.140Z,3.27
2023-04-14T13:51:00.166Z,2.60
2023-04-14T13:53:28.082Z,3.03
2023-04-14T13:55:55.996Z,3.33
2023-04-14T13:58:25.338Z,3.00
2023-04-14T14:00:55.355Z,3.33
2023-04-14T14:03:25.644Z,3.00
2023-04-14T14:05:53.799Z,3.13
2023-04-14T14:08:21.693Z,3.07
2023-04-14T14:10:49.393Z,3.30
2023-04-14T14:13:18.643Z,3.43
2023-04-14T14:15:46.562Z,3.33
2023-04-14T14:18:17.088Z,4.10
2023-04-14T14:20:45.301Z,3.50
2023-04-14T14:23:13.200Z,3.73
2023-04-14T14:25:41.186Z,3.90
2023-04-14T14:28:09.006Z,4.10
2023-04-14T14:30:36.618Z,3.60
2023-04-14T14:33:04.385Z,3.83
2023-04-14T14:35:33.535Z,4.93
2023-04-14T14:38:01.382Z,3.53
2023-04-14T14:40:31.916Z,3.33
2023-04-14T14:42:59.960Z,3.33
2023-04-14T14:45:31.034Z,4.23
2023-04-14T14:48:00.070Z,3.60
2023-04-14T14:50:27.924Z,3.60
2023-04-14T14:52:57.200Z,3.20
2023-04-14T14:55:25.446Z,3.03
2023-04-14T14:57:53.396Z,3.27
2023-04-14T15:00:21.483Z,4.10
2023-04-14T15:02:49.167Z,3.80
2023-04-14T15:05:17.168Z,3.77
2023-04-14T15:07:44.844Z,4.70
2023-04-14T15:10:14.587Z,3.60
2023-04-14T15:12:42.340Z,3.87
2023-04-14T15:15:10.612Z,3.60
2023-04-14T15:17:38.720Z,5.10
2023-04-14T15:20:08.333Z,4.90
2023-04-14T15:22:36.425Z,4.90
2023-04-14T15:25:04.232Z,5.03
2023-04-14T15:27:33.242Z,4.70
2023-04-14T15:30:01.050Z,5.70
2023-04-14T15:32:28.819Z,4.60
2023-04-14T15:34:56.778Z,4.03
2023-04-14T15:37:26.162Z,4.63
2023-04-14T15:39:53.872Z,3.83
2023-04-14T15:42:21.815Z,3.10
2023-04-14T15:44:51.719Z,3.30
2023-04-14T15:47:19.688Z,3.93
2023-04-14T15:49:49.851Z,4.37
2023-04-14T15:52:17.807Z,4.90
2023-04-14T15:54:45.517Z,6.23
2023-04-14T15:57:13.369Z,5.53
2023-04-14T15:59:41.616Z,5.27
2023-04-14T16:02:10.648Z,5.03
2023-04-14T16:04:38.590Z,4.73
2023-04-14T16:07:06.350Z,4.83
2023-04-14T16:09:33.988Z,3.90
2023-04-14T16:12:01.708Z,3.47
2023-04-14T16:14:31.842Z,3.50
2023-04-14T16:16:59.423Z,3.30
2023-04-14T16:19:28.707Z,4.33
2023-04-14T16:21:56.924Z,3.40
2023-04-14T16:24:24.747Z,2.90
2023-04-14T16:26:52.375Z,3.57
2023-04-14T16:29:20.387Z,3.30
2023-04-14T16:31:48.119Z,3.20
2023-04-14T16:34:15.729Z,3.20
2023-04-14T16:36:46.859Z,2.30
2023-04-14T16:39:14.840Z,2.80
2023-04-14T16:41:42.648Z,2.47
2023-04-14T16:44:10.325Z,2.27
2023-04-14T16:46:38.334Z,2.13
2023-04-14T16:49:07.685Z,2.40
2023-04-14T16:51:35.444Z,3.33
2023-04-14T16:54:04.919Z,3.20
2023-04-14T16:56:35.615Z,3.07
2023-04-14T16:59:04.049Z,3.30
2023-04-14T17:01:32.853Z,3.30
2023-04-14T17:04:00.860Z,4.10
2023-04-14T17:06:28.885Z,3.17
2023-04-14T17:08:57.410Z,3.03
2023-04-14T17:11:26.963Z,4.40
2023-04-14T17:13:54.714Z,4.57
2023-04-14T17:16:22.759Z,4.00
2023-04-14T17:18:51.811Z,4.20
2023-04-14T17:21:19.397Z,4.10
2023-04-14T17:23:47.858Z,4.53
2023-04-14T17:26:16.894Z,5.33
2023-04-14T17:28:46.077Z,5.63
2023-04-14T17:31:14.455Z,4.77
2023-04-14T17:33:43.009Z,4.37
2023-04-14T17:36:12.558Z,4.80
2023-04-14T17:38:40.480Z,4.70
2023-04-14T17:41:10.405Z,4.67
2023-04-14T17:43:41.210Z,5.33
2023-04-14T17:46:11.098Z,4.60
2023-04-14T17:48:39.105Z,5.83
2023-04-14T17:51:07.279Z,6.60
2023-04-14T17:53:34.920Z,6.67
2023-04-14T17:56:02.946Z,7.53
2023-04-14T17:58:30.675Z,7.07
2023-04-14T18:00:59.117Z,5.80
2023-04-14T18:03:28.639Z,6.73
2023-04-14T18:05:56.560Z,6.77
2023-04-14T18:08:24.713Z,5.97
2023-04-14T18:10:52.440Z,7.40
2023-04-14T18:13:20.208Z,6.67
2023-04-14T18:15:50.527Z,7.63
2023-04-14T18:18:18.403Z,8.70
2023-04-14T18:20:50.061Z,9.03
2023-04-14T18:23:19.027Z,8.90
2023-04-14T18:28:17.658Z,8.27
2023-04-14T18:30:45.424Z,9.50
2023-04-14T18:33:13.194Z,8.67
2023-04-14T18:35:40.887Z,10.03
2023-04-14T18:38:10.119Z,10.10
2023-04-14T18:40:38.246Z,9.77
2023-04-14T18:43:06.213Z,9.83
2023-04-14T18:45:33.965Z,9.30
2023-04-14T18:48:01.724Z,9.67
2023-04-14T18:50:30.632Z,10.00
2023-04-14T18:52:58.485Z,9.70
2023-04-14T18:55:41.774Z,10.47
2023-04-14T18:58:13.725Z,10.57
2023-04-14T19:00:43.072Z,11.40
2023-04-14T19:03:11.066Z,10.60
2023-04-14T19:05:39.426Z,10.23
2023-04-14T19:08:08.270Z,11.10
2023-04-14T19:10:37.345Z,11.93
2023-04-14T19:13:05.136Z,13.30
2023-04-14T19:15:32.971Z,12.90
2023-04-14T19:18:01.184Z,12.23
2023-04-14T19:20:29.843Z,12.20
2023-04-14T19:22:58.345Z,13.67
2023-04-14T19:25:26.016Z,12.67
2023-04-14T19:27:55.905Z,11.93
2023-04-14T19:30:23.695Z,9.63
2023-04-14T19:32:53.357Z,8.90
2023-04-14T19:35:21.708Z,8.70
2023-04-14T19:37:49.863Z,8.40
2023-04-14T19:40:17.850Z,8.50
2023-04-14T19:42:45.564Z,8.70
2023-04-14T19:45:15.482Z,8.37
2023-04-14T19:47:43.694Z,8.13
2023-04-14T19:50:12.463Z,8.50
2023-04-14T19:52:40.147Z,8.10
2023-04-14T19:55:09.132Z,8.70
2023-04-14T19:57:37.069Z,8.30
2023-04-14T20:00:06.779Z,9.57
2023-04-14T20:02:42.207Z,8.70
2023-04-14T20:05:10.489Z,8.80
2023-04-14T20:07:38.142Z,9.43
2023-04-14T20:10:06.474Z,9.77
2023-04-14T20:12:34.184Z,10.10
2023-04-14T20:15:03.332Z,10.37
2023-04-14T20:17:31.019Z,10.07
2023-04-14T20:20:01.464Z,9.47
2023-04-14T20:22:30.176Z,9.80
2023-04-14T20:24:57.839Z,9.73
2023-04-14T20:27:25.819Z,9.77
2023-04-14T20:29:53.609Z,9.53
2023-04-14T20:32:21.427Z,9.10
2023-04-14T20:34:49.180Z,8.90
2023-04-14T20:37:19.057Z,9.57
2023-04-14T20:39:48.380Z,9.77
2023-04-14T20:42:16.793Z,7.87
2023-04-14T20:44:44.601Z,8.70
2023-04-14T20:47:12.557Z,8.27
2023-04-14T20:49:40.256Z,8.10
2023-04-14T20:52:07.966Z,8.30
2023-04-14T20:54:37.537Z,7.80
2023-04-14T20:57:05.609Z,8.50
2023-04-14T20:59:33.593Z,7.97
2023-04-14T21:02:01.458Z,8.47
2023-04-14T21:04:29.399Z,7.87
2023-04-14T21:06:57.572Z,7.60
2023-04-14T21:09:25.326Z,8.17
2023-04-14T21:12:15.526Z,7.37
2023-04-14T21:15:47.512Z,7.77
2023-04-14T21:17:30.216Z,8.90
2023-04-14T21:19:57.938Z,8.40
2023-04-14T21:22:25.571Z,9.77
2023-04-14T21:24:53.425Z,7.97
2023-04-14T21:27:22.748Z,10.07
2023-04-14T21:29:50.540Z,9.73
2023-04-14T21:32:18.648Z,8.77
2023-04-14T21:34:46.379Z,8.60
2023-04-14T21:37:16.775Z,8.83
2023-04-14T21:39:44.631Z,9.90
2023-04-14T21:42:12.359Z,8.93
2023-04-14T21:44:41.536Z,9.50
2023-04-14T21:47:09.658Z,9.77
2023-04-14T21:49:37.700Z,9.13
2023-04-14T21:52:05.479Z,8.43
2023-04-14T21:54:33.088Z,9.00
2023-04-14T21:57:00.908Z,8.90
2023-04-14T21:59:28.633Z,9.37
2023-04-14T22:01:57.840Z,9.43
2023-04-14T22:04:35.841Z,9.07
2023-04-14T22:07:05.307Z,8.50
2023-04-14T22:09:33.517Z,6.90
2023-04-14T22:12:01.940Z,8.10
2023-04-14T22:14:29.521Z,8.30
2023-04-14T22:16:58.504Z,8.20
2023-04-14T22:19:28.607Z,8.30
2023-04-14T22:21:56.242Z,7.70
2023-04-14T22:24:24.026Z,8.13
2023-04-14T22:26:52.181Z,9.13
2023-04-14T22:29:19.727Z,8.00
2023-04-14T22:31:47.284Z,8.27
2023-04-14T22:34:16.861Z,7.73
2023-04-14T22:36:44.340Z,7.90
2023-04-14T22:39:11.857Z,8.03
2023-04-14T22:41:39.374Z,7.73
2023-04-14T22:44:07.832Z,7.50
2023-04-14T22:46:35.973Z,7.27
2023-04-14T22:49:03.866Z,6.13
2023-04-14T22:51:32.874Z,6.10
2023-04-14T22:54:00.674Z,5.27
2023-04-14T22:56:29.127Z,5.17
2023-04-14T22:58:58.110Z,5.30
2023-04-14T23:01:25.706Z,5.87
2023-04-14T23:03:53.574Z,5.13
2023-04-14T23:06:21.337Z,5.63
2023-04-14T23:08:50.919Z,5.63
2023-04-14T23:11:21.015Z,5.97
2023-04-14T23:13:51.313Z,6.00
2023-04-14T23:16:20.505Z,4.50
2023-04-14T23:18:49.514Z,5.00
2023-04-14T23:21:17.802Z,6.03
2023-04-14T23:23:45.364Z,5.33
2023-04-14T23:26:14.620Z,5.60
2023-04-14T23:28:42.194Z,6.13
2023-04-14T23:31:09.871Z,5.30
2023-04-14T23:33:37.483Z,5.20
2023-04-14T23:36:06.378Z,6.60
2023-04-14T23:38:34.019Z,5.90
2023-04-14T23:41:02.139Z,5.17
2023-04-14T23:43:31.539Z,5.63
2023-04-14T23:45:59.410Z,6.70
2023-04-14T23:48:27.072Z,7.13
2023-04-14T23:51:01.320Z,6.80
2023-04-14T23:53:42.694Z,6.87
2023-04-14T23:56:10.266Z,6.77
2023-04-14T23:58:39.552Z,7.07
